createdAt,value
2022-10-25T00:02:17.459Z,101059.59
2022-10-25T00:04:45.159Z,101066.94
2022-10-25T00:07:11.710Z,101066.94
2022-10-25T00:09:38.411Z,101078.66
2022-10-25T00:12:05.977Z,101084.91
2022-10-25T00:14:32.567Z,101077.03
2022-10-25T00:16:59.118Z,101081.38
2022-10-25T00:19:25.576Z,101081.66
2022-10-25T00:21:52.104Z,101091.75
2022-10-25T00:24:18.642Z,101094.47
2022-10-25T00:26:45.105Z,101083.56
2022-10-25T00:29:12.369Z,101092.28
2022-10-25T00:31:38.978Z,101091.75
2022-10-25T00:34:05.572Z,101091.75
2022-10-25T00:36:32.128Z,101103.75
2022-10-25T00:38:59.014Z,101099.91
2022-10-25T00:41:28.909Z,101100.22
2022-10-25T00:44:32.824Z,101108.38
2022-10-25T00:46:59.420Z,101102.13
2022-10-25T00:49:25.993Z,101098.59
2022-10-25T00:51:57.729Z,101096.66
2022-10-25T00:54:28.329Z,101100.47
2022-10-25T00:57:01.079Z,101098.59
2022-10-25T00:59:28.934Z,101099.66
2022-10-25T01:01:56.457Z,101108.66
2022-10-25T01:04:27.996Z,101100.47
2022-10-25T01:06:54.994Z,101107.84
2022-10-25T01:09:26.134Z,101121.47
2022-10-25T01:11:53.082Z,101118.72
2022-10-25T01:14:20.347Z,101112.47
2022-10-25T01:20:26.610Z,101117.09
2022-10-25T01:23:12.945Z,101119.84
2022-10-25T01:26:14.019Z,101129.91
2022-10-25T01:28:50.947Z,101118.22
2022-10-25T01:31:44.347Z,101131.84
2022-10-25T01:34:23.803Z,101124.75
2022-10-25T01:37:01.683Z,101122.84
2022-10-25T01:39:35.249Z,101130.22
2022-10-25T01:42:19.157Z,101139.19
2022-10-25T01:45:04.351Z,101132.09
2022-10-25T01:47:47.230Z,101132.94
2022-10-25T01:50:21.070Z,101138.66
2022-10-25T01:52:47.703Z,101138.38
2022-10-25T01:55:15.433Z,101142.19
2022-10-25T01:58:06.450Z,101143.84
2022-10-25T02:00:44.066Z,101135.13
2022-10-25T02:03:23.852Z,101147.63
2022-10-25T02:06:12.124Z,101141.66
2022-10-25T02:08:58.878Z,101146.81
2022-10-25T02:11:28.681Z,101148.75
2022-10-25T02:14:20.959Z,101147.94
2022-10-25T02:16:58.608Z,101141.66
2022-10-25T02:19:33.125Z,101146.28
2022-10-25T02:22:02.146Z,101156.09
2022-10-25T02:24:31.987Z,101152.56
2022-10-25T02:27:01.149Z,101151.47
2022-10-25T02:29:31.343Z,101151.72
2022-10-25T02:31:58.539Z,101167.81
2022-10-25T02:34:25.053Z,101153.59
2022-10-25T02:36:53.287Z,101156.31
2022-10-25T02:39:21.985Z,101153.59
2022-10-25T02:41:48.436Z,101159.06
2022-10-25T02:44:14.905Z,101164.78
2022-10-25T02:46:41.691Z,101162.88
2022-10-25T02:49:08.203Z,101168.31
2022-10-25T02:51:34.691Z,101160.97
2022-10-25T02:54:01.331Z,101161.25
2022-10-25T02:56:27.805Z,101163.97
2022-10-25T02:58:56.811Z,101159.63
2022-10-25T03:01:24.392Z,101170.53
2022-10-25T03:03:51.461Z,101175.97
2022-10-25T03:06:18.310Z,101178.41
2022-10-25T03:08:46.211Z,101172.41
2022-10-25T03:11:13.939Z,101191.47
2022-10-25T03:13:40.434Z,101177.06
2022-10-25T03:16:07.373Z,101175.44
2022-10-25T03:18:33.945Z,101179.78
2022-10-25T03:21:01.781Z,101185.22
2022-10-25T03:23:29.064Z,101191.47
2022-10-25T03:25:58.419Z,101193.69
2022-10-25T03:28:27.450Z,101190.97
2022-10-25T03:30:54.849Z,101204.59
2022-10-25T03:33:21.405Z,101204.59
2022-10-25T03:35:52.409Z,101208.94
2022-10-25T03:38:19.481Z,101222.03
2022-10-25T03:40:46.273Z,101208.41
2022-10-25T03:43:12.930Z,101213.84
2022-10-25T03:45:39.509Z,101219.31
2022-10-25T03:48:06.252Z,101231.00
2022-10-25T03:50:32.743Z,101219.31
2022-10-25T03:53:00.203Z,101231.00
2022-10-25T03:55:26.815Z,101216.59
2022-10-25T03:57:53.303Z,101220.38
2022-10-25T04:00:19.952Z,101211.38
2022-10-25T04:02:46.601Z,101209.75
2022-10-25T04:05:13.106Z,101205.13
2022-10-25T04:07:39.587Z,101215.22
2022-10-25T04:10:06.376Z,101217.13
2022-10-25T04:12:32.893Z,101221.47
2022-10-25T04:14:59.604Z,101227.72
2022-10-25T04:17:26.144Z,101228.03
2022-10-25T04:19:52.625Z,101235.38
2022-10-25T04:22:19.072Z,101231.56
2022-10-25T04:24:45.759Z,101240.84
2022-10-25T04:27:12.657Z,101253.63
2022-10-25T04:29:39.635Z,101257.19
2022-10-25T04:32:06.725Z,101265.34
2022-10-25T04:34:33.363Z,101266.41
2022-10-25T04:36:59.913Z,101268.34
2022-10-25T04:39:26.381Z,101269.13
2022-10-25T04:41:52.837Z,101278.97
2022-10-25T04:44:19.333Z,101279.22
2022-10-25T04:46:48.618Z,101283.06
2022-10-25T04:49:16.147Z,101283.06
2022-10-25T04:51:42.784Z,101279.22
2022-10-25T04:54:09.282Z,101280.31
2022-10-25T04:56:35.728Z,101268.63
2022-10-25T04:59:02.367Z,101285.78
2022-10-25T05:01:28.964Z,101280.31
2022-10-25T05:03:55.566Z,101287.69
2022-10-25T05:06:25.527Z,101304.84
2022-10-25T05:08:52.773Z,101304.31
2022-10-25T05:11:21.701Z,101297.78
2022-10-25T05:13:48.296Z,101312.50
2022-10-25T05:16:20.432Z,101300.50
2022-10-25T05:18:47.911Z,101307.84
2022-10-25T05:21:15.663Z,101310.84
2022-10-25T05:23:42.748Z,101308.91
2022-10-25T05:26:18.170Z,101304.31
2022-10-25T05:28:46.747Z,101320.66
2022-10-25T05:31:48.604Z,101312.50
2022-10-25T05:34:15.099Z,101313.56
2022-10-25T05:36:41.707Z,101328.00
2022-10-25T05:39:08.183Z,101315.22
2022-10-25T05:41:37.063Z,101324.44
2022-10-25T05:44:04.986Z,101322.81
2022-10-25T05:46:31.574Z,101321.72
2022-10-25T05:48:59.472Z,101337.25
2022-10-25T05:51:35.717Z,101331.00
2022-10-25T05:54:10.487Z,101332.91
2022-10-25T05:56:37.577Z,101339.47
2022-10-25T05:59:09.602Z,101338.34
2022-10-25T06:01:38.287Z,101340.25
2022-10-25T06:04:05.129Z,101335.88
2022-10-25T06:06:31.804Z,101340.25
2022-10-25T06:08:59.715Z,101338.34
2022-10-25T06:11:27.611Z,101333.16
2022-10-25T06:13:54.343Z,101331.28
2022-10-25T06:16:22.134Z,101340.53
2022-10-25T06:18:48.938Z,101345.16
2022-10-25T06:21:21.230Z,101348.69
2022-10-25T06:23:48.818Z,101355.25
2022-10-25T06:26:26.923Z,101348.69
2022-10-25T06:28:59.785Z,101362.31
2022-10-25T06:31:26.822Z,101366.94
2022-10-25T06:33:53.344Z,101359.88
2022-10-25T06:36:24.602Z,101355.53
2022-10-25T06:38:51.188Z,101363.69
2022-10-25T06:41:28.907Z,101364.50
2022-10-25T06:43:55.468Z,101369.13
2022-10-25T06:46:25.201Z,101371.88
2022-10-25T06:48:53.406Z,101384.63
2022-10-25T06:51:21.597Z,101381.91
2022-10-25T06:53:52.884Z,101392.81
2022-10-25T06:56:19.383Z,101390.09
2022-10-25T06:58:45.943Z,101400.16
2022-10-25T07:01:14.993Z,101395.53
2022-10-25T07:03:43.018Z,101398.25
2022-10-25T07:06:11.971Z,101394.72
2022-10-25T07:08:40.935Z,101400.44
2022-10-25T07:11:15.739Z,101404.00
2022-10-25T07:13:42.502Z,101404.81
2022-10-25T07:16:12.447Z,101412.16
2022-10-25T07:18:39.249Z,101407.81
2022-10-25T07:21:08.804Z,101413.25
2022-10-25T07:23:42.072Z,101411.34
2022-10-25T07:26:33.340Z,101421.44
2022-10-25T07:29:01.543Z,101424.16
2022-10-25T07:31:33.569Z,101423.34
2022-10-25T07:34:02.280Z,101420.63
2022-10-25T07:36:29.071Z,101424.41
2022-10-25T07:38:56.997Z,101436.13
2022-10-25T07:41:24.740Z,101436.13
2022-10-25T07:43:51.248Z,101439.94
2022-10-25T07:46:18.419Z,101429.84
2022-10-25T07:48:44.911Z,101435.28
2022-10-25T07:51:13.625Z,101430.94
2022-10-25T07:53:40.620Z,101438.31
2022-10-25T07:56:11.949Z,101439.94
2022-10-25T07:58:38.462Z,101440.22
2022-10-25T08:01:07.130Z,101441.03
2022-10-25T08:03:33.833Z,101446.47
2022-10-25T08:06:00.936Z,101454.66
2022-10-25T08:08:28.591Z,101457.66
2022-10-25T08:10:55.096Z,101457.38
2022-10-25T08:13:21.681Z,101457.66
2022-10-25T08:15:55.582Z,101452.19
2022-10-25T08:18:23.921Z,101462.00
2022-10-25T08:21:02.141Z,101451.09
2022-10-25T08:23:31.599Z,101460.38
2022-10-25T08:25:58.444Z,101464.97
2022-10-25T08:28:24.888Z,101471.25
2022-10-25T08:30:53.731Z,101467.69
2022-10-25T08:33:20.225Z,101468.53
2022-10-25T08:35:46.862Z,101468.53
2022-10-25T08:38:13.480Z,101468.53
2022-10-25T08:40:57.334Z,101478.59
2022-10-25T08:43:54.554Z,101474.00
2022-10-25T08:47:02.419Z,101468.53
2022-10-25T08:49:40.352Z,101479.69
2022-10-25T08:52:18.565Z,101473.16
2022-10-25T08:54:46.783Z,101482.41
2022-10-25T08:57:24.602Z,101478.88
2022-10-25T09:00:10.434Z,101474.25
2022-10-25T09:02:46.775Z,101476.72
2022-10-25T09:08:52.980Z,101486.75
2022-10-25T09:11:25.478Z,101493.06
2022-10-25T09:14:04.052Z,101499.56
2022-10-25T09:16:42.705Z,101494.94
2022-10-25T09:19:16.857Z,101497.66
2022-10-25T09:21:53.060Z,101501.47
2022-10-25T09:24:45.726Z,101514.28
2022-10-25T09:27:22.849Z,101520.53
2022-10-25T09:30:09.998Z,101519.72
2022-10-25T09:32:40.084Z,101523.53
2022-10-25T09:35:15.085Z,101522.44
2022-10-25T09:37:51.247Z,101525.97
2022-10-25T09:40:21.939Z,101517.56
2022-10-25T09:42:55.820Z,101518.63
2022-10-25T09:46:08.497Z,101527.38
2022-10-25T09:48:43.845Z,101521.63
2022-10-25T09:51:18.087Z,101526.28
2022-10-25T09:53:46.334Z,101520.56
2022-10-25T09:56:12.993Z,101516.75
2022-10-25T09:58:49.857Z,101517.56
2022-10-25T10:01:21.303Z,101524.69
2022-10-25T10:03:52.322Z,101521.94
2022-10-25T10:06:40.615Z,101526.56
2022-10-25T10:09:11.451Z,101521.66
2022-10-25T10:11:38.054Z,101529.56
2022-10-25T10:14:18.174Z,101531.47
2022-10-25T10:16:49.956Z,101536.09
2022-10-25T10:19:21.287Z,101531.47
2022-10-25T10:21:49.530Z,101536.66
2022-10-25T10:24:20.847Z,101529.56
2022-10-25T10:26:54.209Z,101539.41
2022-10-25T10:29:22.907Z,101544.84
2022-10-25T10:31:55.350Z,101543.75
2022-10-25T10:34:33.935Z,101546.47
2022-10-25T10:37:12.757Z,101543.75
2022-10-25T10:40:08.199Z,101538.59
2022-10-25T10:42:36.707Z,101546.47
2022-10-25T10:45:08.962Z,101551.94
2022-10-25T10:47:42.130Z,101561.72
2022-10-25T10:50:20.531Z,101553.00
2022-10-25T10:55:52.371Z,101548.38
2022-10-25T10:58:31.845Z,101560.09
2022-10-25T11:01:16.251Z,101549.19
2022-10-25T11:03:53.543Z,101550.81
2022-10-25T11:06:36.155Z,101548.91
2022-10-25T11:09:18.195Z,101553.56
2022-10-25T11:11:45.966Z,101552.75
2022-10-25T11:14:17.034Z,101558.19
2022-10-25T11:16:59.165Z,101547.28
2022-10-25T11:19:41.620Z,101549.72
2022-10-25T11:22:20.504Z,101550.00
2022-10-25T11:25:17.672Z,101562.81
2022-10-25T11:28:21.259Z,101557.09
2022-10-25T11:31:08.809Z,101555.47
2022-10-25T11:33:44.202Z,101560.91
2022-10-25T11:36:35.825Z,101555.19
2022-10-25T11:39:26.156Z,101568.28
2022-10-25T11:42:00.701Z,101560.63
2022-10-25T11:45:00.947Z,101561.47
2022-10-25T11:47:33.685Z,101566.94
2022-10-25T11:50:18.340Z,101566.94
2022-10-25T11:52:53.218Z,101560.63
2022-10-25T11:55:45.135Z,101555.19
2022-10-25T11:58:42.611Z,101551.63
2022-10-25T12:01:41.360Z,101553.56
2022-10-25T12:04:26.896Z,101557.91
2022-10-25T12:07:22.263Z,101551.38
2022-10-25T12:10:13.684Z,101555.75
2022-10-25T12:12:46.560Z,101557.94
2022-10-25T12:15:23.597Z,101556.03
2022-10-25T12:17:51.808Z,101543.22
2022-10-25T12:20:24.444Z,101548.13
2022-10-25T12:22:54.218Z,101547.03
2022-10-25T12:25:27.647Z,101548.94
2022-10-25T12:28:06.775Z,101544.06
2022-10-25T12:30:35.097Z,101547.63
2022-10-25T12:33:20.053Z,101554.97
2022-10-25T12:35:53.063Z,101553.91
2022-10-25T12:38:39.612Z,101541.91
2022-10-25T12:41:23.493Z,101551.19
2022-10-25T12:44:08.706Z,101545.72
2022-10-25T12:46:56.252Z,101546.78
2022-10-25T12:49:57.753Z,101546.53
2022-10-25T12:52:30.178Z,101545.72
2022-10-25T12:54:56.561Z,101540.28
2022-10-25T12:57:46.093Z,101555.53
2022-10-25T13:00:18.197Z,101545.44
2022-10-25T13:03:07.541Z,101558.00
2022-10-25T13:06:04.113Z,101544.63
2022-10-25T13:08:32.446Z,101542.72
2022-10-25T13:11:04.782Z,101540.81
2022-10-25T13:13:34.596Z,101544.38
2022-10-25T13:16:03.336Z,101547.91
2022-10-25T13:18:32.776Z,101543.56
2022-10-25T13:21:04.723Z,101544.38
2022-10-25T13:23:43.402Z,101552.56
2022-10-25T13:26:16.061Z,101538.94
2022-10-25T13:28:48.131Z,101540.03
2022-10-25T13:31:33.091Z,101533.72
2022-10-25T13:34:14.673Z,101546.81
2022-10-25T13:36:51.642Z,101546.00
2022-10-25T13:39:42.741Z,101541.94
2022-10-25T13:42:14.960Z,101542.47
2022-10-25T13:44:53.679Z,101531.56
2022-10-25T13:47:42.512Z,101537.88
2022-10-25T13:50:28.915Z,101537.59
2022-10-25T13:56:22.248Z,101536.22
2022-10-25T13:58:56.535Z,101528.59
2022-10-25T14:01:25.955Z,101537.28
2022-10-25T14:04:01.767Z,101534.31
2022-10-25T14:06:29.913Z,101532.66
2022-10-25T14:09:00.980Z,101536.22
2022-10-25T14:11:33.379Z,101532.41
2022-10-25T14:14:11.477Z,101529.69
2022-10-25T14:16:45.325Z,101519.88
2022-10-25T14:19:18.110Z,101513.59
2022-10-25T14:21:46.675Z,101521.50
2022-10-25T14:24:16.746Z,101508.41
2022-10-25T14:26:56.872Z,101518.25
2022-10-25T14:29:27.205Z,101512.78
2022-10-25T14:31:55.205Z,101521.78
2022-10-25T14:34:28.205Z,101516.34
2022-10-25T14:36:57.007Z,101515.53
2022-10-25T14:39:26.498Z,101503.81
2022-10-25T14:41:58.622Z,101502.41
2022-10-25T14:44:31.220Z,101503.53
2022-10-25T14:46:59.714Z,101502.97
2022-10-25T14:49:27.341Z,101498.06
2022-10-25T14:51:59.521Z,101510.34
2022-10-25T14:54:30.626Z,101502.69
2022-10-25T14:57:03.786Z,101503.50
2022-10-25T14:59:43.573Z,101504.88
2022-10-25T15:02:29.876Z,101506.22
2022-10-25T15:04:59.817Z,101501.88
2022-10-25T15:07:46.975Z,101505.72
2022-10-25T15:10:41.107Z,101492.88
2022-10-25T15:13:21.553Z,101493.97
2022-10-25T15:15:50.336Z,101485.50
2022-10-25T15:18:34.846Z,101493.16
2022-10-25T15:21:10.379Z,101492.34
2022-10-25T15:23:38.901Z,101480.34
2022-10-25T15:26:23.788Z,101484.97
2022-10-25T15:28:58.664Z,101492.91
2022-10-25T15:31:28.079Z,101488.25
2022-10-25T15:34:00.010Z,101491.00
2022-10-25T15:36:30.085Z,101499.16
2022-10-25T15:39:12.956Z,101494.53
2022-10-25T15:41:42.374Z,101491.00
2022-10-25T15:44:08.889Z,101486.59
2022-10-25T15:46:35.542Z,101497.50
2022-10-25T15:49:06.833Z,101488.81
2022-10-25T15:51:34.881Z,101492.34
2022-10-25T15:54:02.037Z,101485.78
2022-10-25T15:56:29.096Z,101489.63
2022-10-25T15:58:55.600Z,101490.72
2022-10-25T16:01:22.314Z,101497.78
2022-10-25T16:03:48.918Z,101495.88
2022-10-25T16:06:15.439Z,101493.16
2022-10-25T16:08:42.297Z,101496.97
2022-10-25T16:11:17.630Z,101498.06
2022-10-25T16:13:46.516Z,101496.97
2022-10-25T16:16:44.850Z,101491.53
2022-10-25T16:19:21.945Z,101488.50
2022-10-25T16:21:48.874Z,101481.44
2022-10-25T16:24:15.492Z,101484.97
2022-10-25T16:26:45.191Z,101480.63
2022-10-25T16:29:20.632Z,101489.63
2022-10-25T16:31:47.177Z,101480.06
2022-10-25T16:34:17.230Z,101488.25
2022-10-25T16:36:44.500Z,101473.53
2022-10-25T16:39:11.514Z,101482.53
2022-10-25T16:41:40.264Z,101475.72
2022-10-25T16:44:06.801Z,101472.16
2022-10-25T16:46:33.385Z,101475.72
2022-10-25T16:49:01.996Z,101468.06
2022-10-25T16:51:29.018Z,101470.78
2022-10-25T16:53:57.145Z,101470.53
2022-10-25T16:56:23.645Z,101470.78
2022-10-25T16:58:50.103Z,101459.06
2022-10-25T17:01:16.714Z,101463.72
2022-10-25T17:03:44.532Z,101464.81
2022-10-25T17:06:28.732Z,101460.19
2022-10-25T17:08:57.731Z,101464.53
2022-10-25T17:11:24.217Z,101462.63
2022-10-25T17:13:50.708Z,101462.91
2022-10-25T17:16:17.259Z,101472.72
2022-10-25T17:18:43.775Z,101463.16
2022-10-25T17:21:16.248Z,101463.72
2022-10-25T17:23:43.019Z,101465.88
2022-10-25T17:26:11.504Z,101472.19
2022-10-25T17:28:43.047Z,101467.78
2022-10-25T17:31:13.363Z,101466.97
2022-10-25T17:33:40.973Z,101465.06
2022-10-25T17:36:16.861Z,101469.72
2022-10-25T17:38:43.837Z,101472.44
2022-10-25T17:41:10.867Z,101469.72
2022-10-25T17:43:39.029Z,101468.09
2022-10-25T17:46:08.612Z,101468.91
2022-10-25T17:48:35.152Z,101469.19
2022-10-25T17:51:07.471Z,101453.91
2022-10-25T17:53:34.273Z,101462.63
2022-10-25T17:56:18.202Z,101460.19
2022-10-25T17:58:47.085Z,101465.63
2022-10-25T18:01:18.214Z,101464.78
2022-10-25T18:03:45.155Z,101453.06
2022-10-25T18:06:13.683Z,101462.91
2022-10-25T18:08:40.823Z,101464.78
2022-10-25T18:11:19.352Z,101461.00
2022-10-25T18:13:46.167Z,101461.00
2022-10-25T18:16:12.727Z,101461.00
2022-10-25T18:18:39.206Z,101466.72
2022-10-25T18:21:07.391Z,101470.53
2022-10-25T18:23:34.994Z,101468.63
2022-10-25T18:26:02.150Z,101463.16
2022-10-25T18:28:28.721Z,101471.34
2022-10-25T18:31:03.588Z,101469.72
2022-10-25T18:33:31.897Z,101468.91
2022-10-25T18:36:07.405Z,101465.38
2022-10-25T18:38:34.494Z,101455.28
2022-10-25T18:41:05.150Z,101462.63
2022-10-25T18:43:31.656Z,101462.63
2022-10-25T18:45:58.732Z,101454.19
2022-10-25T18:48:26.110Z,101452.56
2022-10-25T18:50:52.931Z,101446.53
2022-10-25T18:53:20.605Z,101445.44
2022-10-25T18:55:50.951Z,101453.91
2022-10-25T18:58:17.685Z,101455.53
2022-10-25T19:00:45.115Z,101438.66
2022-10-25T19:03:12.531Z,101444.91
2022-10-25T19:05:40.147Z,101445.19
2022-10-25T19:08:11.763Z,101445.47
2022-10-25T19:10:42.153Z,101438.09
2022-10-25T19:13:18.699Z,101448.75
2022-10-25T19:15:46.478Z,101444.63
2022-10-25T19:18:16.380Z,101438.09
2022-10-25T19:20:46.270Z,101437.28
2022-10-25T19:23:13.291Z,101430.72
2022-10-25T19:25:39.780Z,101428.28
2022-10-25T19:28:06.989Z,101438.63
2022-10-25T19:30:37.650Z,101433.19
2022-10-25T19:33:05.089Z,101437.81
2022-10-25T19:35:32.127Z,101432.13
2022-10-25T19:37:58.677Z,101434.03
2022-10-25T19:40:25.446Z,101438.63
2022-10-25T19:42:51.929Z,101426.09
2022-10-25T19:45:18.451Z,101431.81
2022-10-25T19:47:45.884Z,101428.28
2022-10-25T19:50:12.793Z,101435.13
2022-10-25T19:52:39.591Z,101426.38
2022-10-25T19:55:07.333Z,101428.56
2022-10-25T19:57:34.902Z,101424.47
2022-10-25T20:00:02.000Z,101415.50
2022-10-25T20:02:28.617Z,101414.69
2022-10-25T20:04:55.513Z,101416.56
2022-10-25T20:07:22.097Z,101411.94
2022-10-25T20:09:48.566Z,101401.06
2022-10-25T20:12:15.162Z,101403.78
2022-10-25T20:14:42.893Z,101401.31
2022-10-25T20:17:09.635Z,101410.28
2022-10-25T20:19:36.263Z,101400.22
2022-10-25T20:22:04.813Z,101411.09
2022-10-25T20:24:31.268Z,101408.94
2022-10-25T20:26:59.770Z,101401.31
2022-10-25T20:29:26.841Z,101403.19
2022-10-25T20:31:53.539Z,101408.41
2022-10-25T20:34:20.741Z,101393.41
2022-10-25T20:36:48.064Z,101397.75
2022-10-25T20:39:14.895Z,101406.22
2022-10-25T20:41:41.452Z,101396.41
2022-10-25T20:44:09.037Z,101403.50
2022-10-25T20:46:35.614Z,101409.75
2022-10-25T20:49:03.410Z,101402.69
2022-10-25T20:51:30.190Z,101397.47
2022-10-25T20:53:57.042Z,101397.47
2022-10-25T20:56:24.375Z,101399.13
2022-10-25T20:58:50.982Z,101403.50
2022-10-25T21:01:18.023Z,101399.94
2022-10-25T21:03:44.777Z,101392.31
2022-10-25T21:06:12.700Z,101393.94
2022-10-25T21:08:39.586Z,101389.59
2022-10-25T21:11:09.323Z,101395.84
2022-10-25T21:13:37.050Z,101392.31
2022-10-25T21:16:15.314Z,101392.31
2022-10-25T21:18:42.922Z,101395.03
2022-10-25T21:21:18.013Z,101387.69
2022-10-25T21:23:45.965Z,101395.84
2022-10-25T21:26:12.486Z,101393.13
2022-10-25T21:28:41.167Z,101389.88
2022-10-25T21:31:10.484Z,101381.69
2022-10-25T21:33:37.172Z,101389.88
2022-10-25T21:36:04.592Z,101391.78
2022-10-25T21:38:31.144Z,101386.34
2022-10-25T21:41:08.850Z,101389.06
2022-10-25T21:43:36.492Z,101398.31
2022-10-25T21:46:06.880Z,101386.59
2022-10-25T21:48:34.997Z,101382.78
2022-10-25T21:51:01.718Z,101391.78
2022-10-25T21:53:28.624Z,101383.63
2022-10-25T21:56:18.725Z,101389.31
2022-10-25T21:58:47.286Z,101387.69
2022-10-25T22:01:19.335Z,101389.59
2022-10-25T22:03:45.912Z,101380.34
2022-10-25T22:06:14.805Z,101379.53
2022-10-25T22:08:41.914Z,101391.22
2022-10-25T22:11:13.036Z,101378.94
2022-10-25T22:13:39.916Z,101375.13
2022-10-25T22:16:13.237Z,101382.47
2022-10-25T22:18:40.166Z,101377.84
2022-10-25T22:21:09.180Z,101377.84
2022-10-25T22:23:35.743Z,101377.84
2022-10-25T22:26:05.363Z,101372.41
2022-10-25T22:28:35.411Z,101369.69
2022-10-25T22:31:16.923Z,101368.84
2022-10-25T22:33:44.450Z,101362.59
2022-10-25T22:36:14.175Z,101364.50
2022-10-25T22:38:41.029Z,101361.78
2022-10-25T22:41:11.175Z,101357.13
2022-10-25T22:43:38.859Z,101349.25
2022-10-25T22:46:08.224Z,101356.59
2022-10-25T22:48:37.210Z,101349.25
2022-10-25T22:51:04.252Z,101354.94
2022-10-25T22:53:30.904Z,101356.59
2022-10-25T22:56:22.697Z,101342.44
2022-10-25T22:58:51.658Z,101342.44
2022-10-25T23:01:22.136Z,101350.59
2022-10-25T23:03:49.628Z,101352.22
2022-10-25T23:06:19.453Z,101345.16
2022-10-25T23:08:45.938Z,101352.22
2022-10-25T23:11:16.268Z,101352.50
2022-10-25T23:13:43.521Z,101345.44
2022-10-25T23:16:11.429Z,101346.53
2022-10-25T23:18:38.692Z,101347.59
2022-10-25T23:21:10.632Z,101348.97
2022-10-25T23:23:38.745Z,101347.34
2022-10-25T23:28:38.558Z,101342.16
2022-10-25T23:31:10.875Z,101327.47
2022-10-25T23:33:38.243Z,101336.72
2022-10-25T23:36:09.393Z,101325.00
2022-10-25T23:38:36.867Z,101332.06
2022-10-25T23:41:03.726Z,101326.91
2022-10-25T23:43:31.013Z,101328.00
2022-10-25T23:45:57.795Z,101323.09
2022-10-25T23:48:24.289Z,101325.28
2022-10-25T23:50:58.718Z,101313.56
2022-10-25T23:53:26.026Z,101308.94
2022-10-25T23:55:52.989Z,101311.66
2022-10-25T23:58:20.193Z,101299.94
